sensor_id;sensor_type;location;lat;lon;timestamp;temperature;humidity
8002;DHT22;4046;48.774;8.732;2024-02-23T00:00:24;20.80;72.80
8002;DHT22;4046;48.774;8.732;2024-02-23T00:06:25;20.70;72.80
8002;DHT22;4046;48.774;8.732;2024-02-23T00:09:21;20.70;72.70
8002;DHT22;4046;48.774;8.732;2024-02-23T00:14:50;20.80;72.80
8002;DHT22;4046;48.774;8.732;2024-02-23T00:17:33;20.80;72.80
8002;DHT22;4046;48.774;8.732;2024-02-23T00:20:43;20.80;72.80
8002;DHT22;4046;48.774;8.732;2024-02-23T00:23:35;20.70;72.70
8002;DHT22;4046;48.774;8.732;2024-02-23T00:26:14;20.80;72.80
8002;DHT22;4046;48.774;8.732;2024-02-23T00:28:40;20.80;72.80
8002;DHT22;4046;48.774;8.732;2024-02-23T00:31:27;20.70;72.80
8002;DHT22;4046;48.774;8.732;2024-02-23T00:34:26;20.80;72.80
8002;DHT22;4046;48.774;8.732;2024-02-23T00:40:26;20.70;72.70
8002;DHT22;4046;48.774;8.732;2024-02-23T00:42:52;20.80;72.80
8002;DHT22;4046;48.774;8.732;2024-02-23T00:48:26;20.80;72.70
8002;DHT22;4046;48.774;8.732;2024-02-23T00:51:15;20.70;72.70
8002;DHT22;4046;48.774;8.732;2024-02-23T00:54:36;20.70;72.70
8002;DHT22;4046;48.774;8.732;2024-02-23T00:57:05;20.80;72.80
8002;DHT22;4046;48.774;8.732;2024-02-23T00:59:31;20.70;72.70
8002;DHT22;4046;48.774;8.732;2024-02-23T01:01:58;20.70;72.70
8002;DHT22;4046;48.774;8.732;2024-02-23T01:04:24;20.80;72.80
8002;DHT22;4046;48.774;8.732;2024-02-23T01:10:39;20.80;72.70
8002;DHT22;4046;48.774;8.732;2024-02-23T01:13:33;20.80;72.80
8002;DHT22;4046;48.774;8.732;2024-02-23T01:16:06;20.80;72.80
8002;DHT22;4046;48.774;8.732;2024-02-23T01:18:36;20.80;72.80
8002;DHT22;4046;48.774;8.732;2024-02-23T01:24:38;20.80;72.80
8002;DHT22;4046;48.774;8.732;2024-02-23T01:27:19;20.70;72.70
8002;DHT22;4046;48.774;8.732;2024-02-23T01:29:54;20.70;72.70
8002;DHT22;4046;48.774;8.732;2024-02-23T01:32:44;20.70;72.60
8002;DHT22;4046;48.774;8.732;2024-02-23T01:36:15;20.70;72.70
8002;DHT22;4046;48.774;8.732;2024-02-23T01:38:41;20.70;72.70
8002;DHT22;4046;48.774;8.732;2024-02-23T01:41:47;20.70;72.70
8002;DHT22;4046;48.774;8.732;2024-02-23T01:44:56;20.70;72.70
8002;DHT22;4046;48.774;8.732;2024-02-23T01:50:32;20.70;72.70
8002;DHT22;4046;48.774;8.732;2024-02-23T01:53:31;20.70;72.70
8002;DHT22;4046;48.774;8.732;2024-02-23T01:59:01;20.70;73.50
8002;DHT22;4046;48.774;8.732;2024-02-23T02:05:37;20.70;72.70
8002;DHT22;4046;48.774;8.732;2024-02-23T02:11:22;20.70;72.70
8002;DHT22;4046;48.774;8.732;2024-02-23T02:20:12;20.70;72.70
8002;DHT22;4046;48.774;8.732;2024-02-23T02:22:38;20.70;72.70
8002;DHT22;4046;48.774;8.732;2024-02-23T02:25:06;20.70;72.70
8002;DHT22;4046;48.774;8.732;2024-02-23T02:27:54;20.70;72.60
8002;DHT22;4046;48.774;8.732;2024-02-23T02:30:57;20.70;72.60
8002;DHT22;4046;48.774;8.732;2024-02-23T02:33:24;20.70;72.60
8002;DHT22;4046;48.774;8.732;2024-02-23T02:43:23;20.70;72.70
8002;DHT22;4046;48.774;8.732;2024-02-23T02:46:06;20.70;72.70
8002;DHT22;4046;48.774;8.732;2024-02-23T02:49:34;20.70;72.60
8002;DHT22;4046;48.774;8.732;2024-02-23T02:52:43;20.70;72.70
8002;DHT22;4046;48.774;8.732;2024-02-23T02:55:29;20.70;72.70
8002;DHT22;4046;48.774;8.732;2024-02-23T02:58:47;20.70;72.70
8002;DHT22;4046;48.774;8.732;2024-02-23T03:01:13;20.70;72.70
8002;DHT22;4046;48.774;8.732;2024-02-23T03:07:23;20.70;72.70
8002;DHT22;4046;48.774;8.732;2024-02-23T03:18:00;20.70;72.70
8002;DHT22;4046;48.774;8.732;2024-02-23T03:21:12;20.70;72.70
8002;DHT22;4046;48.774;8.732;2024-02-23T03:34:59;20.70;72.70
8002;DHT22;4046;48.774;8.732;2024-02-23T03:41:23;20.70;72.60
8002;DHT22;4046;48.774;8.732;2024-02-23T03:44:11;20.70;72.70
8002;DHT22;4046;48.774;8.732;2024-02-23T03:47:20;20.70;72.80
8002;DHT22;4046;48.774;8.732;2024-02-23T03:49:46;20.80;72.80
8002;DHT22;4046;48.774;8.732;2024-02-23T03:52:30;20.70;72.70
8002;DHT22;4046;48.774;8.732;2024-02-23T03:55:17;20.60;72.60
8002;DHT22;4046;48.774;8.732;2024-02-23T03:58:15;20.70;72.70
8002;DHT22;4046;48.774;8.732;2024-02-23T04:00:56;20.70;72.60
8002;DHT22;4046;48.774;8.732;2024-02-23T04:03:25;20.60;72.50
8002;DHT22;4046;48.774;8.732;2024-02-23T04:06:10;20.60;72.50
8002;DHT22;4046;48.774;8.732;2024-02-23T04:13:20;20.70;72.60
8002;DHT22;4046;48.774;8.732;2024-02-23T04:15:40;20.70;72.60
8002;DHT22;4046;48.774;8.732;2024-02-23T04:18:42;20.70;72.60
8002;DHT22;4046;48.774;8.732;2024-02-23T04:29:34;20.70;72.70
8002;DHT22;4046;48.774;8.732;2024-02-23T04:32:16;20.60;72.60
8002;DHT22;4046;48.774;8.732;2024-02-23T04:35:00;20.60;72.60
8002;DHT22;4046;48.774;8.732;2024-02-23T04:37:29;20.60;72.60
8002;DHT22;4046;48.774;8.732;2024-02-23T04:43:29;20.60;72.60
8002;DHT22;4046;48.774;8.732;2024-02-23T04:50:48;20.60;72.50
8002;DHT22;4046;48.774;8.732;2024-02-23T04:57:17;20.60;72.60
8002;DHT22;4046;48.774;8.732;2024-02-23T05:00:06;20.60;72.60
8002;DHT22;4046;48.774;8.732;2024-02-23T05:03:51;20.60;72.60
8002;DHT22;4046;48.774;8.732;2024-02-23T05:06:42;20.60;73.30
8002;DHT22;4046;48.774;8.732;2024-02-23T05:09:31;20.60;72.50
8002;DHT22;4046;48.774;8.732;2024-02-23T05:12:25;20.60;72.60
8002;DHT22;4046;48.774;8.732;2024-02-23T05:15:13;20.60;72.60
8002;DHT22;4046;48.774;8.732;2024-02-23T05:17:40;20.60;72.50
8002;DHT22;4046;48.774;8.732;2024-02-23T05:20:14;20.60;72.50
8002;DHT22;4046;48.774;8.732;2024-02-23T05:23:42;20.60;72.50
8002;DHT22;4046;48.774;8.732;2024-02-23T05:25:52;20.60;72.50
8002;DHT22;4046;48.774;8.732;2024-02-23T05:31:51;20.60;72.40
8002;DHT22;4046;48.774;8.732;2024-02-23T05:34:44;20.60;72.40
8002;DHT22;4046;48.774;8.732;2024-02-23T05:45:18;20.60;72.50
8002;DHT22;4046;48.774;8.732;2024-02-23T05:47:45;20.60;72.50
8002;DHT22;4046;48.774;8.732;2024-02-23T05:50:50;20.60;72.50
8002;DHT22;4046;48.774;8.732;2024-02-23T05:53:54;20.60;72.50
8002;DHT22;4046;48.774;8.732;2024-02-23T05:59:46;20.60;72.60
8002;DHT22;4046;48.774;8.732;2024-02-23T06:05:46;20.60;72.50
8002;DHT22;4046;48.774;8.732;2024-02-23T06:08:13;20.60;72.50
8002;DHT22;4046;48.774;8.732;2024-02-23T06:11:06;20.60;72.50
8002;DHT22;4046;48.774;8.732;2024-02-23T06:17:29;20.60;72.40
8002;DHT22;4046;48.774;8.732;2024-02-23T06:19:55;20.90;72.70
8002;DHT22;4046;48.774;8.732;2024-02-23T06:22:56;20.60;72.40
8002;DHT22;4046;48.774;8.732;2024-02-23T06:30:25;20.60;72.40
8002;DHT22;4046;48.774;8.732;2024-02-23T06:36:10;20.60;72.40
8002;DHT22;4046;48.774;8.732;2024-02-23T06:38:36;20.60;72.40
8002;DHT22;4046;48.774;8.732;2024-02-23T06:41:15;20.60;72.30
8002;DHT22;4046;48.774;8.732;2024-02-23T06:47:14;20.60;72.30
8002;DHT22;4046;48.774;8.732;2024-02-23T06:49:54;20.60;72.30
8002;DHT22;4046;48.774;8.732;2024-02-23T06:52:26;20.60;72.30
8002;DHT22;4046;48.774;8.732;2024-02-23T06:55:30;20.60;72.30
8002;DHT22;4046;48.774;8.732;2024-02-23T06:58:04;20.60;72.30
8002;DHT22;4046;48.774;8.732;2024-02-23T07:00:55;20.60;72.30
8002;DHT22;4046;48.774;8.732;2024-02-23T07:03:41;20.60;72.30
8002;DHT22;4046;48.774;8.732;2024-02-23T07:06:10;20.60;72.30
8002;DHT22;4046;48.774;8.732;2024-02-23T07:09:18;20.60;72.30
8002;DHT22;4046;48.774;8.732;2024-02-23T07:19:53;20.60;72.30
8002;DHT22;4046;48.774;8.732;2024-02-23T07:22:28;20.60;72.30
8002;DHT22;4046;48.774;8.732;2024-02-23T07:25:07;20.60;72.30
8002;DHT22;4046;48.774;8.732;2024-02-23T07:28:04;20.60;72.30
8002;DHT22;4046;48.774;8.732;2024-02-23T07:30:30;20.60;72.20
8002;DHT22;4046;48.774;8.732;2024-02-23T07:33:06;20.60;72.30
8002;DHT22;4046;48.774;8.732;2024-02-23T07:35:47;20.60;72.20
8002;DHT22;4046;48.774;8.732;2024-02-23T07:38:13;20.60;72.10
8002;DHT22;4046;48.774;8.732;2024-02-23T07:41:12;20.70;72.20
8002;DHT22;4046;48.774;8.732;2024-02-23T07:44:06;20.60;72.10
8002;DHT22;4046;48.774;8.732;2024-02-23T07:46:57;20.60;72.00
8002;DHT22;4046;48.774;8.732;2024-02-23T07:49:59;20.70;72.20
8002;DHT22;4046;48.774;8.732;2024-02-23T07:52:25;20.70;72.20
8002;DHT22;4046;48.774;8.732;2024-02-23T07:55:21;20.60;72.10
8002;DHT22;4046;48.774;8.732;2024-02-23T07:58:00;20.70;72.20
8002;DHT22;4046;48.774;8.732;2024-02-23T08:03:52;20.70;72.10
8002;DHT22;4046;48.774;8.732;2024-02-23T08:06:34;20.70;72.10
8002;DHT22;4046;48.774;8.732;2024-02-23T08:09:49;20.70;72.10
8002;DHT22;4046;48.774;8.732;2024-02-23T08:12:14;20.70;72.00
8002;DHT22;4046;48.774;8.732;2024-02-23T08:15:02;20.70;72.00
8002;DHT22;4046;48.774;8.732;2024-02-23T08:17:47;20.80;71.90
8002;DHT22;4046;48.774;8.732;2024-02-23T08:20:36;20.80;71.80
8002;DHT22;4046;48.774;8.732;2024-02-23T08:26:30;20.90;71.70
8002;DHT22;4046;48.774;8.732;2024-02-23T08:39:49;21.00;71.50
8002;DHT22;4046;48.774;8.732;2024-02-23T08:42:15;21.40;71.90
8002;DHT22;4046;48.774;8.732;2024-02-23T08:51:55;21.10;71.30
8002;DHT22;4046;48.774;8.732;2024-02-23T08:54:24;21.10;71.30
8002;DHT22;4046;48.774;8.732;2024-02-23T08:56:59;21.20;71.40
8002;DHT22;4046;48.774;8.732;2024-02-23T08:59:54;21.10;71.30
8002;DHT22;4046;48.774;8.732;2024-02-23T09:02:46;21.20;71.20
8002;DHT22;4046;48.774;8.732;2024-02-23T09:06:06;21.30;71.30
8002;DHT22;4046;48.774;8.732;2024-02-23T09:08:32;21.30;71.10
8002;DHT22;4046;48.774;8.732;2024-02-23T09:14:22;21.40;71.00
8002;DHT22;4046;48.774;8.732;2024-02-23T09:17:00;21.50;70.90
8002;DHT22;4046;48.774;8.732;2024-02-23T09:20:10;21.50;70.80
8002;DHT22;4046;48.774;8.732;2024-02-23T09:22:55;21.60;70.80
8002;DHT22;4046;48.774;8.732;2024-02-23T09:26:09;21.70;70.60
8002;DHT22;4046;48.774;8.732;2024-02-23T09:31:54;22.00;70.00
8002;DHT22;4046;48.774;8.732;2024-02-23T09:34:26;22.10;69.70
8002;DHT22;4046;48.774;8.732;2024-02-23T09:37:44;22.00;69.90
8002;DHT22;4046;48.774;8.732;2024-02-23T09:41:08;21.90;69.90
8002;DHT22;4046;48.774;8.732;2024-02-23T09:44:34;21.70;70.10
8002;DHT22;4046;48.774;8.732;2024-02-23T09:47:16;21.60;70.30
8002;DHT22;4046;48.774;8.732;2024-02-23T09:49:53;21.60;70.50
8002;DHT22;4046;48.774;8.732;2024-02-23T09:52:21;21.50;70.40
8002;DHT22;4046;48.774;8.732;2024-02-23T09:58:54;21.90;69.80
8002;DHT22;4046;48.774;8.732;2024-02-23T10:01:43;22.20;69.20
8002;DHT22;4046;48.774;8.732;2024-02-23T10:04:09;22.40;68.90
8002;DHT22;4046;48.774;8.732;2024-02-23T10:06:36;22.70;68.50
8002;DHT22;4046;48.774;8.732;2024-02-23T10:09:51;22.70;68.40
8002;DHT22;4046;48.774;8.732;2024-02-23T10:12:19;23.10;67.90
8002;DHT22;4046;48.774;8.732;2024-02-23T10:14:45;23.50;67.20
8002;DHT22;4046;48.774;8.732;2024-02-23T10:17:11;23.80;66.60
8002;DHT22;4046;48.774;8.732;2024-02-23T10:19:38;23.80;66.50
8002;DHT22;4046;48.774;8.732;2024-02-23T10:22:04;23.70;66.70
8002;DHT22;4046;48.774;8.732;2024-02-23T10:24:45;23.80;66.50
8002;DHT22;4046;48.774;8.732;2024-02-23T10:30:37;23.40;67.10
8002;DHT22;4046;48.774;8.732;2024-02-23T10:33:05;22.90;67.60
8002;DHT22;4046;48.774;8.732;2024-02-23T10:36:29;22.60;68.10
8002;DHT22;4046;48.774;8.732;2024-02-23T10:38:57;22.30;68.70
8002;DHT22;4046;48.774;8.732;2024-02-23T10:42:03;22.00;69.00
8002;DHT22;4046;48.774;8.732;2024-02-23T10:44:30;21.90;69.10
8002;DHT22;4046;48.774;8.732;2024-02-23T10:46:58;21.70;69.30
8002;DHT22;4046;48.774;8.732;2024-02-23T10:49:47;22.00;70.00
8002;DHT22;4046;48.774;8.732;2024-02-23T10:52:15;21.40;69.90
8002;DHT22;4046;48.774;8.732;2024-02-23T10:55:00;21.30;70.20
8002;DHT22;4046;48.774;8.732;2024-02-23T11:01:03;21.00;70.60
8002;DHT22;4046;48.774;8.732;2024-02-23T11:03:38;20.90;70.80
8002;DHT22;4046;48.774;8.732;2024-02-23T11:06:07;20.80;70.80
8002;DHT22;4046;48.774;8.732;2024-02-23T11:08:35;20.80;71.00
8002;DHT22;4046;48.774;8.732;2024-02-23T11:11:36;20.70;71.10
8002;DHT22;4046;48.774;8.732;2024-02-23T11:14:09;20.70;72.00
8002;DHT22;4046;48.774;8.732;2024-02-23T11:16:39;21.00;71.60
8002;DHT22;4046;48.774;8.732;2024-02-23T11:19:08;20.60;71.30
8002;DHT22;4046;48.774;8.732;2024-02-23T11:21:52;20.70;71.40
8002;DHT22;4046;48.774;8.732;2024-02-23T11:24:42;20.70;71.30
8002;DHT22;4046;48.774;8.732;2024-02-23T11:27:16;20.70;71.40
8002;DHT22;4046;48.774;8.732;2024-02-23T11:30:22;20.70;71.30
8002;DHT22;4046;48.774;8.732;2024-02-23T11:32:59;20.70;71.30
8002;DHT22;4046;48.774;8.732;2024-02-23T11:39:22;20.70;71.30
8002;DHT22;4046;48.774;8.732;2024-02-23T11:42:07;20.80;71.40
8002;DHT22;4046;48.774;8.732;2024-02-23T11:45:07;20.70;71.30
8002;DHT22;4046;48.774;8.732;2024-02-23T11:47:37;20.70;71.20
8002;DHT22;4046;48.774;8.732;2024-02-23T11:53:01;20.70;71.40
8002;DHT22;4046;48.774;8.732;2024-02-23T11:56:05;20.90;71.50
8002;DHT22;4046;48.774;8.732;2024-02-23T11:59:16;20.70;71.40
8002;DHT22;4046;48.774;8.732;2024-02-23T12:02:08;20.70;71.40
8002;DHT22;4046;48.774;8.732;2024-02-23T12:04:34;20.70;71.40
8002;DHT22;4046;48.774;8.732;2024-02-23T12:07:01;20.70;71.40
8002;DHT22;4046;48.774;8.732;2024-02-23T12:09:34;20.70;71.50
8002;DHT22;4046;48.774;8.732;2024-02-23T12:12:29;20.70;71.50
8002;DHT22;4046;48.774;8.732;2024-02-23T12:14:56;21.00;71.70
8002;DHT22;4046;48.774;8.732;2024-02-23T12:17:22;20.70;71.40
8002;DHT22;4046;48.774;8.732;2024-02-23T12:19:48;20.70;71.40
8002;DHT22;4046;48.774;8.732;2024-02-23T12:22:18;20.70;71.50
8002;DHT22;4046;48.774;8.732;2024-02-23T12:25:08;20.70;71.50
8002;DHT22;4046;48.774;8.732;2024-02-23T12:27:34;20.70;71.50
8002;DHT22;4046;48.774;8.732;2024-02-23T12:33:09;20.70;72.10
8002;DHT22;4046;48.774;8.732;2024-02-23T12:35:35;20.70;71.40
8002;DHT22;4046;48.774;8.732;2024-02-23T12:38:08;20.70;71.30
8002;DHT22;4046;48.774;8.732;2024-02-23T12:40:44;20.70;71.40
8002;DHT22;4046;48.774;8.732;2024-02-23T12:43:47;20.70;71.30
8002;DHT22;4046;48.774;8.732;2024-02-23T12:46:17;20.70;71.40
8002;DHT22;4046;48.774;8.732;2024-02-23T12:48:43;20.70;71.40
8002;DHT22;4046;48.774;8.732;2024-02-23T12:51:16;20.70;71.30
8002;DHT22;4046;48.774;8.732;2024-02-23T12:54:34;20.70;71.20
8002;DHT22;4046;48.774;8.732;2024-02-23T12:57:34;20.80;71.20
8002;DHT22;4046;48.774;8.732;2024-02-23T13:00:13;20.80;71.20
8002;DHT22;4046;48.774;8.732;2024-02-23T13:02:40;20.80;71.30
8002;DHT22;4046;48.774;8.732;2024-02-23T13:05:06;20.70;71.30
8002;DHT22;4046;48.774;8.732;2024-02-23T13:10:31;20.80;71.30
8002;DHT22;4046;48.774;8.732;2024-02-23T13:12:58;20.70;71.30
8002;DHT22;4046;48.774;8.732;2024-02-23T13:15:24;20.70;71.40
8002;DHT22;4046;48.774;8.732;2024-02-23T13:21:15;20.70;71.40
8002;DHT22;4046;48.774;8.732;2024-02-23T13:23:42;20.60;71.30
8002;DHT22;4046;48.774;8.732;2024-02-23T13:26:55;20.60;71.40
8002;DHT22;4046;48.774;8.732;2024-02-23T13:29:14;20.60;71.30
8002;DHT22;4046;48.774;8.732;2024-02-23T13:31:40;20.70;71.30
8002;DHT22;4046;48.774;8.732;2024-02-23T13:34:08;20.70;71.50
8002;DHT22;4046;48.774;8.732;2024-02-23T13:36:56;20.60;71.30
8002;DHT22;4046;48.774;8.732;2024-02-23T13:39:22;20.70;71.50
8002;DHT22;4046;48.774;8.732;2024-02-23T13:42:23;20.60;71.30
8002;DHT22;4046;48.774;8.732;2024-02-23T13:44:49;20.70;71.50
8002;DHT22;4046;48.774;8.732;2024-02-23T13:47:15;20.60;71.30
8002;DHT22;4046;48.774;8.732;2024-02-23T13:49:42;20.60;71.30
8002;DHT22;4046;48.774;8.732;2024-02-23T13:52:08;20.60;71.30
8002;DHT22;4046;48.774;8.732;2024-02-23T13:54:51;20.70;71.40
8002;DHT22;4046;48.774;8.732;2024-02-23T14:00:56;20.70;71.40
8002;DHT22;4046;48.774;8.732;2024-02-23T14:03:40;20.70;71.20
8002;DHT22;4046;48.774;8.732;2024-02-23T14:06:15;20.70;71.20
8002;DHT22;4046;48.774;8.732;2024-02-23T14:10:19;20.70;71.30
8002;DHT22;4046;48.774;8.732;2024-02-23T14:17:10;20.70;71.30
8002;DHT22;4046;48.774;8.732;2024-02-23T14:19:37;20.70;71.40
8002;DHT22;4046;48.774;8.732;2024-02-23T14:22:17;20.70;71.40
8002;DHT22;4046;48.774;8.732;2024-02-23T14:25:35;20.70;71.40
8002;DHT22;4046;48.774;8.732;2024-02-23T14:31:24;20.70;71.40
8002;DHT22;4046;48.774;8.732;2024-02-23T14:34:27;20.70;71.40
8002;DHT22;4046;48.774;8.732;2024-02-23T14:37:18;20.60;71.20
8002;DHT22;4046;48.774;8.732;2024-02-23T14:39:44;21.10;71.80
8002;DHT22;4046;48.774;8.732;2024-02-23T14:42:11;20.60;71.30
8002;DHT22;4046;48.774;8.732;2024-02-23T14:45:11;20.60;71.30
8002;DHT22;4046;48.774;8.732;2024-02-23T14:47:58;20.70;71.40
8002;DHT22;4046;48.774;8.732;2024-02-23T14:53:42;20.60;71.30
8002;DHT22;4046;48.774;8.732;2024-02-23T14:56:27;20.80;71.60
8002;DHT22;4046;48.774;8.732;2024-02-23T14:59:36;20.60;71.50
8002;DHT22;4046;48.774;8.732;2024-02-23T15:02:54;20.60;71.30
8002;DHT22;4046;48.774;8.732;2024-02-23T15:08:59;20.70;71.40
8002;DHT22;4046;48.774;8.732;2024-02-23T15:11:26;20.70;71.40
8002;DHT22;4046;48.774;8.732;2024-02-23T15:13:52;20.60;71.30
8002;DHT22;4046;48.774;8.732;2024-02-23T15:16:29;20.60;71.30
8002;DHT22;4046;48.774;8.732;2024-02-23T15:19:00;20.60;71.30
8002;DHT22;4046;48.774;8.732;2024-02-23T15:21:29;20.60;71.30
8002;DHT22;4046;48.774;8.732;2024-02-23T15:23:55;20.60;71.30
8002;DHT22;4046;48.774;8.732;2024-02-23T15:29:26;20.60;71.30
8002;DHT22;4046;48.774;8.732;2024-02-23T15:31:52;20.60;71.30
8002;DHT22;4046;48.774;8.732;2024-02-23T15:34:44;20.60;71.30
8002;DHT22;4046;48.774;8.732;2024-02-23T15:37:10;20.60;71.30
8002;DHT22;4046;48.774;8.732;2024-02-23T15:39:37;20.60;71.40
8002;DHT22;4046;48.774;8.732;2024-02-23T15:42:04;20.60;71.30
8002;DHT22;4046;48.774;8.732;2024-02-23T15:44:30;20.60;71.40
8002;DHT22;4046;48.774;8.732;2024-02-23T15:46:57;20.60;71.40
8002;DHT22;4046;48.774;8.732;2024-02-23T15:49:23;20.60;71.30
8002;DHT22;4046;48.774;8.732;2024-02-23T15:55:14;20.60;71.30
8002;DHT22;4046;48.774;8.732;2024-02-23T15:57:43;20.60;71.30
8002;DHT22;4046;48.774;8.732;2024-02-23T16:00:19;20.60;71.30
8002;DHT22;4046;48.774;8.732;2024-02-23T16:03:04;20.60;71.30
8002;DHT22;4046;48.774;8.732;2024-02-23T16:05:36;20.60;71.30
8002;DHT22;4046;48.774;8.732;2024-02-23T16:08:02;20.60;71.40
8002;DHT22;4046;48.774;8.732;2024-02-23T16:10:34;20.60;71.40
8002;DHT22;4046;48.774;8.732;2024-02-23T16:13:01;20.60;71.40
8002;DHT22;4046;48.774;8.732;2024-02-23T16:15:28;20.60;71.40
8002;DHT22;4046;48.774;8.732;2024-02-23T16:18:08;20.60;71.30
8002;DHT22;4046;48.774;8.732;2024-02-23T16:21:37;20.70;71.40
8002;DHT22;4046;48.774;8.732;2024-02-23T16:23:44;20.70;71.30
8002;DHT22;4046;48.774;8.732;2024-02-23T16:26:20;20.70;71.30
8002;DHT22;4046;48.774;8.732;2024-02-23T16:29:11;20.70;71.30
8002;DHT22;4046;48.774;8.732;2024-02-23T16:31:56;20.80;71.40
8002;DHT22;4046;48.774;8.732;2024-02-23T16:34:22;20.80;71.30
8002;DHT22;4046;48.774;8.732;2024-02-23T16:37:23;20.80;71.30
8002;DHT22;4046;48.774;8.732;2024-02-23T16:43:56;20.80;71.30
8002;DHT22;4046;48.774;8.732;2024-02-23T16:46:52;20.80;71.60
8002;DHT22;4046;48.774;8.732;2024-02-23T16:49:18;20.80;71.40
8002;DHT22;4046;48.774;8.732;2024-02-23T16:51:44;20.80;71.40
8002;DHT22;4046;48.774;8.732;2024-02-23T16:54:27;20.80;72.20
8002;DHT22;4046;48.774;8.732;2024-02-23T16:57:57;20.80;71.40
8002;DHT22;4046;48.774;8.732;2024-02-23T17:01:27;20.80;71.40
8002;DHT22;4046;48.774;8.732;2024-02-23T17:04:10;20.80;71.40
8002;DHT22;4046;48.774;8.732;2024-02-23T17:06:45;20.80;71.40
8002;DHT22;4046;48.774;8.732;2024-02-23T17:09:48;20.80;71.40
8002;DHT22;4046;48.774;8.732;2024-02-23T17:12:15;20.80;71.50
8002;DHT22;4046;48.774;8.732;2024-02-23T17:14:44;20.80;71.50
8002;DHT22;4046;48.774;8.732;2024-02-23T17:17:25;20.80;71.50
8002;DHT22;4046;48.774;8.732;2024-02-23T17:19:59;20.80;71.50
8002;DHT22;4046;48.774;8.732;2024-02-23T17:22:28;20.70;71.40
8002;DHT22;4046;48.774;8.732;2024-02-23T17:25:01;20.80;71.50
8002;DHT22;4046;48.774;8.732;2024-02-23T17:27:39;20.80;71.50
8002;DHT22;4046;48.774;8.732;2024-02-23T17:30:14;20.80;71.50
8002;DHT22;4046;48.774;8.732;2024-02-23T17:32:41;20.80;71.50
8002;DHT22;4046;48.774;8.732;2024-02-23T17:35:08;20.80;71.50
8002;DHT22;4046;48.774;8.732;2024-02-23T17:37:48;20.80;71.50
8002;DHT22;4046;48.774;8.732;2024-02-23T17:40:15;20.80;71.50
8002;DHT22;4046;48.774;8.732;2024-02-23T17:43:10;20.80;71.50
8002;DHT22;4046;48.774;8.732;2024-02-23T17:45:36;20.70;71.50
8002;DHT22;4046;48.774;8.732;2024-02-23T17:48:38;20.70;71.50
8002;DHT22;4046;48.774;8.732;2024-02-23T17:51:04;20.70;71.50
8002;DHT22;4046;48.774;8.732;2024-02-23T17:53:31;20.70;71.50
8002;DHT22;4046;48.774;8.732;2024-02-23T17:56:16;20.70;71.50
8002;DHT22;4046;48.774;8.732;2024-02-23T17:58:47;20.70;71.50
8002;DHT22;4046;48.774;8.732;2024-02-23T18:01:16;20.70;71.50
8002;DHT22;4046;48.774;8.732;2024-02-23T18:03:53;20.70;71.50
8002;DHT22;4046;48.774;8.732;2024-02-23T18:06:25;20.70;71.50
8002;DHT22;4046;48.774;8.732;2024-02-23T18:09:17;20.70;71.60
8002;DHT22;4046;48.774;8.732;2024-02-23T18:12:11;20.70;71.50
8002;DHT22;4046;48.774;8.732;2024-02-23T18:14:38;20.70;71.60
8002;DHT22;4046;48.774;8.732;2024-02-23T18:17:04;20.70;71.60
8002;DHT22;4046;48.774;8.732;2024-02-23T18:19:56;20.70;71.70
8002;DHT22;4046;48.774;8.732;2024-02-23T18:22:32;20.70;71.70
8002;DHT22;4046;48.774;8.732;2024-02-23T18:25:08;20.70;71.60
8002;DHT22;4046;48.774;8.732;2024-02-23T18:27:54;20.70;71.70
8002;DHT22;4046;48.774;8.732;2024-02-23T18:30:20;20.60;71.60
8002;DHT22;4046;48.774;8.732;2024-02-23T18:32:54;20.70;71.60
8002;DHT22;4046;48.774;8.732;2024-02-23T18:35:24;20.60;71.60
8002;DHT22;4046;48.774;8.732;2024-02-23T18:37:50;20.70;71.60
8002;DHT22;4046;48.774;8.732;2024-02-23T18:40:16;20.70;71.70
8002;DHT22;4046;48.774;8.732;2024-02-23T18:42:59;20.70;71.70
8002;DHT22;4046;48.774;8.732;2024-02-23T18:45:25;20.60;71.60
8002;DHT22;4046;48.774;8.732;2024-02-23T18:48:00;20.60;71.60
8002;DHT22;4046;48.774;8.732;2024-02-23T18:50:27;20.70;71.60
8002;DHT22;4046;48.774;8.732;2024-02-23T18:52:53;20.70;71.60
8002;DHT22;4046;48.774;8.732;2024-02-23T18:55:22;20.70;71.60
8002;DHT22;4046;48.774;8.732;2024-02-23T18:57:55;20.70;71.60
8002;DHT22;4046;48.774;8.732;2024-02-23T19:00:49;20.70;71.60
8002;DHT22;4046;48.774;8.732;2024-02-23T19:03:15;20.60;71.50
8002;DHT22;4046;48.774;8.732;2024-02-23T19:06:17;20.70;71.60
8002;DHT22;4046;48.774;8.732;2024-02-23T19:08:46;20.60;71.60
8002;DHT22;4046;48.774;8.732;2024-02-23T19:11:44;20.60;71.60
8002;DHT22;4046;48.774;8.732;2024-02-23T19:14:13;20.60;71.60
8002;DHT22;4046;48.774;8.732;2024-02-23T19:16:40;20.60;71.50
8002;DHT22;4046;48.774;8.732;2024-02-23T19:19:18;20.60;71.60
8002;DHT22;4046;48.774;8.732;2024-02-23T19:22:19;20.70;71.70
8002;DHT22;4046;48.774;8.732;2024-02-23T19:24:54;20.60;71.50
8002;DHT22;4046;48.774;8.732;2024-02-23T19:27:43;20.60;71.50
8002;DHT22;4046;48.774;8.732;2024-02-23T19:30:18;20.60;71.60
8002;DHT22;4046;48.774;8.732;2024-02-23T19:33:07;20.60;71.60
8002;DHT22;4046;48.774;8.732;2024-02-23T19:36:09;20.60;71.60
8002;DHT22;4046;48.774;8.732;2024-02-23T19:42:44;20.60;71.50
8002;DHT22;4046;48.774;8.732;2024-02-23T19:45:35;20.70;71.70
8002;DHT22;4046;48.774;8.732;2024-02-23T19:48:05;20.60;71.60
8002;DHT22;4046;48.774;8.732;2024-02-23T19:51:01;20.60;71.60
8002;DHT22;4046;48.774;8.732;2024-02-23T19:53:57;20.60;71.60
8002;DHT22;4046;48.774;8.732;2024-02-23T19:56:24;20.50;71.50
8002;DHT22;4046;48.774;8.732;2024-02-23T19:59:10;20.60;71.60
8002;DHT22;4046;48.774;8.732;2024-02-23T20:01:58;20.60;71.60
8002;DHT22;4046;48.774;8.732;2024-02-23T20:04:27;20.60;71.60
8002;DHT22;4046;48.774;8.732;2024-02-23T20:07:09;20.60;71.60
8002;DHT22;4046;48.774;8.732;2024-02-23T20:10:07;20.60;71.60
8002;DHT22;4046;48.774;8.732;2024-02-23T20:12:33;20.60;71.60
8002;DHT22;4046;48.774;8.732;2024-02-23T20:15:03;20.60;71.50
8002;DHT22;4046;48.774;8.732;2024-02-23T20:17:36;20.60;71.60
8002;DHT22;4046;48.774;8.732;2024-02-23T20:20:05;20.60;71.60
8002;DHT22;4046;48.774;8.732;2024-02-23T20:22:38;20.60;71.50
8002;DHT22;4046;48.774;8.732;2024-02-23T20:25:23;20.70;71.70
8002;DHT22;4046;48.774;8.732;2024-02-23T20:32:10;20.60;71.50
8002;DHT22;4046;48.774;8.732;2024-02-23T20:34:43;20.60;71.50
8002;DHT22;4046;48.774;8.732;2024-02-23T20:37:35;20.60;71.50
8002;DHT22;4046;48.774;8.732;2024-02-23T20:40:12;20.60;71.60
8002;DHT22;4046;48.774;8.732;2024-02-23T20:43:24;20.60;71.60
8002;DHT22;4046;48.774;8.732;2024-02-23T20:46:34;20.60;71.60
8002;DHT22;4046;48.774;8.732;2024-02-23T20:49:04;20.60;71.60
8002;DHT22;4046;48.774;8.732;2024-02-23T20:51:36;20.60;71.60
8002;DHT22;4046;48.774;8.732;2024-02-23T20:54:02;20.60;71.60
8002;DHT22;4046;48.774;8.732;2024-02-23T20:56:29;20.60;71.60
8002;DHT22;4046;48.774;8.732;2024-02-23T20:58:58;20.60;71.60
8002;DHT22;4046;48.774;8.732;2024-02-23T21:02:08;20.60;71.50
8002;DHT22;4046;48.774;8.732;2024-02-23T21:04:45;20.60;71.50
8002;DHT22;4046;48.774;8.732;2024-02-23T21:07:11;20.60;71.60
8002;DHT22;4046;48.774;8.732;2024-02-23T21:10:06;20.60;71.50
8002;DHT22;4046;48.774;8.732;2024-02-23T21:12:42;20.60;71.50
8002;DHT22;4046;48.774;8.732;2024-02-23T21:15:12;20.60;71.50
8002;DHT22;4046;48.774;8.732;2024-02-23T21:21:17;20.60;71.50
8002;DHT22;4046;48.774;8.732;2024-02-23T21:27:11;20.60;71.60
8002;DHT22;4046;48.774;8.732;2024-02-23T21:29:44;20.60;71.60